Time;durP1;ratioP1;P1;durP2;ratioP2;P2;SDS_P1;SDS_P2;PMS_P1;PMS_P2;Temp;Humidity;BMP_temperature;BMP_pressure;BME280_temperature;BME280_humidity;BME280_pressure;Samples;Min_cycle;Max_cycle;Signal;HPM_P1;HPM_P2
2023/04/18 00:00:23;;;;;;;26.83;22.47;;;10.90;84.00;;;;;;5038913;28;20185;-92
2023/04/18 00:02:53;;;;;;;28.87;22.33;;;10.80;84.60;;;;;;5050444;28;20192;-91
2023/04/18 00:05:25;;;;;;;27.20;23.67;;;10.90;85.00;;;;;;5021533;28;20216;-93
2023/04/18 00:07:52;;;;;;;24.17;21.50;;;10.80;85.00;;;;;;5019248;28;20268;-93
2023/04/18 00:10:18;;;;;;;25.70;21.37;;;10.70;85.80;;;;;;5019017;28;20217;-92
2023/04/18 00:12:43;;;;;;;24.63;21.73;;;10.70;85.10;;;;;;5020677;28;20261;-93
2023/04/18 00:15:10;;;;;;;27.23;21.40;;;10.70;86.50;;;;;;5033182;28;20178;-90
2023/04/18 00:17:38;;;;;;;27.50;21.03;;;10.60;86.30;;;;;;5031830;28;20261;-93
2023/04/18 00:20:11;;;;;;;23.67;20.90;;;10.60;86.80;;;;;;5036018;28;20177;-93
2023/04/18 00:22:45;;;;;;;25.57;22.27;;;10.60;88.00;;;;;;5041532;28;20188;-90
2023/04/18 00:25:16;;;;;;;24.93;21.43;;;10.50;87.00;;;;;;5036312;28;20663;-91
2023/04/18 00:27:57;;;;;;;27.13;20.87;;;10.50;88.60;;;;;;5019774;28;20190;-95
2023/04/18 00:30:22;;;;;;;24.23;21.23;;;10.40;89.70;;;;;;5027732;28;20213;-94
2023/04/18 00:32:48;;;;;;;26.77;21.87;;;10.50;90.70;;;;;;5028490;28;20212;-92
2023/04/18 00:35:14;;;;;;;28.57;22.13;;;10.40;90.00;;;;;;5028131;28;20181;-89
2023/04/18 00:37:41;;;;;;;25.90;22.60;;;10.50;90.20;;;;;;5034593;28;20174;-90
2023/04/18 00:40:08;;;;;;;28.27;22.30;;;10.50;90.10;;;;;;5040956;28;20186;-91
2023/04/18 00:42:33;;;;;;;26.07;21.63;;;10.40;90.40;;;;;;5040951;28;20162;-88
2023/04/18 00:45:02;;;;;;;24.93;21.70;;;10.50;91.30;;;;;;5025940;28;20200;-91
2023/04/18 00:47:42;;;;;;;26.87;21.93;;;10.30;91.40;;;;;;5027699;28;20201;-92
2023/04/18 00:50:09;;;;;;;26.83;21.77;;;10.30;91.30;;;;;;5027427;28;20221;-88
2023/04/18 00:52:35;;;;;;;26.40;22.80;;;10.30;92.40;;;;;;5031620;28;20181;-90
2023/04/18 00:55:03;;;;;;;25.53;22.77;;;10.20;92.50;;;;;;5028457;28;20190;-92
2023/04/18 00:57:30;;;;;;;27.77;21.63;;;10.20;93.20;;;;;;5019280;28;20190;-88
2023/04/18 01:00:00;;;;;;;26.37;22.10;;;10.20;93.20;;;;;;5018470;28;20181;-91
2023/04/18 01:02:30;;;;;;;26.20;23.03;;;10.20;93.40;;;;;;5017861;28;20181;-89
2023/04/18 01:04:57;;;;;;;26.27;22.57;;;10.30;94.20;;;;;;5017300;28;20177;-88
2023/04/18 01:07:24;;;;;;;27.50;24.37;;;10.10;94.60;;;;;;5016396;28;20184;-89
2023/04/18 01:09:50;;;;;;;28.53;22.87;;;10.10;95.40;;;;;;5037260;28;20209;-95
2023/04/18 01:12:15;;;;;;;30.90;23.50;;;10.10;95.40;;;;;;5019589;28;20276;-94
2023/04/18 01:14:43;;;;;;;26.03;22.77;;;10.10;95.50;;;;;;5017447;28;20280;-92
2023/04/18 01:17:09;;;;;;;29.07;23.60;;;10.20;95.60;;;;;;5019412;28;20232;-89
2023/04/18 01:19:39;;;;;;;27.70;24.53;;;10.30;95.30;;;;;;5023049;28;20311;-93
2023/04/18 01:22:09;;;;;;;30.07;24.03;;;10.00;95.50;;;;;;5024912;28;20182;-93
2023/04/18 01:24:35;;;;;;;30.70;23.37;;;10.10;95.50;;;;;;5020588;28;20202;-92
2023/04/18 01:27:14;;;;;;;27.67;24.37;;;9.90;96.80;;;;;;5023783;28;20189;-93
2023/04/18 01:29:40;;;;;;;31.23;24.40;;;9.90;96.80;;;;;;5029222;28;20201;-89
2023/04/18 01:32:06;;;;;;;29.63;23.80;;;9.90;97.10;;;;;;5036406;28;20209;-87
2023/04/18 01:34:35;;;;;;;27.90;24.23;;;9.90;97.40;;;;;;5026676;28;20197;-91
2023/04/18 01:37:00;;;;;;;27.80;23.93;;;10.00;97.50;;;;;;5024633;28;20192;-91
2023/04/18 01:39:27;;;;;;;28.93;24.80;;;9.90;97.10;;;;;;5029095;28;20257;-92
2023/04/18 01:41:56;;;;;;;28.40;23.23;;;9.90;97.60;;;;;;5026223;28;20628;-90
2023/04/18 01:44:39;;;;;;;32.20;24.70;;;9.90;97.30;;;;;;5057246;28;20169;-87
2023/04/18 01:47:05;;;;;;;28.87;23.70;;;9.80;97.90;;;;;;5032926;28;20204;-92
2023/04/18 01:49:32;;;;;;;30.40;23.43;;;9.80;98.70;;;;;;5024815;28;20205;-92
2023/04/18 01:51:58;;;;;;;28.73;24.03;;;9.70;99.10;;;;;;5021548;28;20716;-91
2023/04/18 01:54:26;;;;;;;26.63;23.77;;;9.60;99.50;;;;;;5040711;28;20255;-88
2023/04/18 01:56:52;;;;;;;27.60;23.87;;;9.70;99.90;;;;;;5023924;28;20196;-90
2023/04/18 01:59:19;;;;;;;29.57;24.70;;;9.60;99.90;;;;;;5010553;28;20186;-90
2023/04/18 02:01:45;;;;;;;28.87;22.23;;;9.60;99.90;;;;;;5026689;28;20632;-94
2023/04/18 02:04:11;;;;;;;28.43;24.23;;;9.50;99.90;;;;;;5030388;28;20224;-92
2023/04/18 02:06:37;;;;;;;29.70;24.03;;;9.50;99.90;;;;;;5036903;28;20243;-92
2023/04/18 02:09:04;;;;;;;31.67;25.83;;;9.50;99.90;;;;;;5037722;28;20204;-87
2023/04/18 02:11:33;;;;;;;30.17;24.73;;;9.50;99.90;;;;;;5040048;28;20175;-89
2023/04/18 02:14:07;;;;;;;31.10;24.17;;;9.50;99.90;;;;;;5022347;28;20204;-89
2023/04/18 02:16:37;;;;;;;30.03;24.80;;;9.50;99.90;;;;;;5022525;28;20185;-89
2023/04/18 02:19:06;;;;;;;30.10;25.60;;;9.40;99.90;;;;;;5026910;28;20186;-87
2023/04/18 02:21:32;;;;;;;30.90;25.47;;;9.40;99.90;;;;;;5025525;28;20182;-92
2023/04/18 02:23:57;;;;;;;29.23;24.90;;;9.30;99.90;;;;;;5021906;28;20181;-88
2023/04/18 02:26:26;;;;;;;30.03;24.90;;;9.30;99.90;;;;;;5020507;28;20182;-87
2023/04/18 02:28:51;;;;;;;29.30;25.27;;;9.40;99.90;;;;;;5020188;28;20186;-89
2023/04/18 02:31:17;;;;;;;29.90;24.13;;;9.30;99.90;;;;;;5042738;28;20182;-93
2023/04/18 02:33:48;;;;;;;28.27;23.43;;;9.30;99.90;;;;;;5027016;28;20208;-87
2023/04/18 02:36:18;;;;;;;28.83;24.03;;;9.30;99.90;;;;;;5027175;28;20182;-88
2023/04/18 02:39:02;;;;;;;32.87;25.17;;;9.30;99.90;;;;;;5022769;28;20173;-90
2023/04/18 02:41:27;;;;;;;28.87;24.13;;;9.20;99.90;;;;;;5031525;28;20227;-89
2023/04/18 02:43:54;;;;;;;26.53;23.57;;;9.20;99.90;;;;;;5021665;28;20193;-91
2023/04/18 02:46:22;;;;;;;30.03;24.27;;;9.20;99.90;;;;;;5020551;28;20202;-87
2023/04/18 02:48:48;;;;;;;30.87;23.87;;;9.10;99.90;;;;;;5021415;28;20200;-93
2023/04/18 02:51:14;;;;;;;29.93;25.07;;;9.30;99.90;;;;;;5037597;28;20165;-92
2023/04/18 02:53:40;;;;;;;28.10;23.47;;;9.00;99.90;;;;;;5040150;28;20186;-91
2023/04/18 02:56:06;;;;;;;30.53;25.80;;;9.00;99.90;;;;;;5035842;28;20186;-91
2023/04/18 02:58:35;;;;;;;29.77;24.37;;;9.00;99.90;;;;;;5019513;28;20204;-91
2023/04/18 03:01:02;;;;;;;29.53;24.50;;;9.00;99.90;;;;;;5020571;28;20182;-90
2023/04/18 03:03:27;;;;;;;29.20;24.23;;;9.10;99.90;;;;;;5018889;28;20541;-95
2023/04/18 03:05:53;;;;;;;28.70;24.23;;;9.10;99.90;;;;;;5024645;28;20248;-92
2023/04/18 03:08:18;;;;;;;29.33;23.83;;;8.90;99.90;;;;;;5034660;28;20200;-92
2023/04/18 03:10:47;;;;;;;28.60;23.60;;;8.90;99.90;;;;;;5058540;28;20216;-91
2023/04/18 03:13:16;;;;;;;28.20;24.07;;;8.90;99.90;;;;;;5039023;28;20192;-89
2023/04/18 03:15:44;;;;;;;29.87;23.70;;;8.80;99.90;;;;;;5032102;28;20204;-90
2023/04/18 03:18:11;;;;;;;30.33;23.60;;;8.90;99.90;;;;;;5024906;28;20185;-90
2023/04/18 03:20:37;;;;;;;29.47;24.10;;;8.90;99.90;;;;;;5021409;28;20181;-90
2023/04/18 03:23:02;;;;;;;29.43;23.77;;;8.80;99.90;;;;;;5020605;28;20186;-92
2023/04/18 03:25:28;;;;;;;29.77;22.27;;;8.70;99.90;;;;;;5033905;28;20165;-92
2023/04/18 03:27:56;;;;;;;32.03;22.67;;;8.70;99.90;;;;;;5022415;28;20194;-91
2023/04/18 03:30:22;;;;;;;30.23;23.00;;;8.40;99.90;;;;;;5020093;28;20233;-91
2023/04/18 03:32:48;;;;;;;27.67;23.10;;;8.60;99.90;;;;;;5019760;28;20636;-91
2023/04/18 03:35:17;;;;;;;28.43;21.97;;;8.60;99.90;;;;;;5022502;28;20240;-90
2023/04/18 03:37:42;;;;;;;26.77;21.40;;;8.60;99.90;;;;;;5030156;28;20201;-91
2023/04/18 03:40:14;;;;;;;27.83;22.87;;;8.70;99.90;;;;;;5026310;28;20182;-90
2023/04/18 03:42:40;;;;;;;28.70;22.67;;;8.50;99.90;;;;;;5020920;28;20181;-90
2023/04/18 03:45:06;;;;;;;26.20;22.13;;;8.50;99.90;;;;;;5020538;28;20189;-92
2023/04/18 03:47:32;;;;;;;24.33;21.30;;;8.60;99.10;;;;;;5019862;28;20189;-91
2023/04/18 03:49:57;;;;;;;30.30;22.53;;;8.50;98.70;;;;;;5020917;28;20257;-92
2023/04/18 03:52:23;;;;;;;28.20;22.50;;;8.50;98.50;;;;;;5029665;28;20570;-89
2023/04/18 03:54:50;;;;;;;25.97;21.07;;;8.50;98.30;;;;;;5023589;28;20280;-90
2023/04/18 03:57:18;;;;;;;28.07;21.73;;;8.40;98.20;;;;;;5019409;28;20190;-89
2023/04/18 03:59:47;;;;;;;26.53;21.83;;;8.50;98.70;;;;;;5018776;28;20708;-92
2023/04/18 04:02:13;;;;;;;28.60;22.93;;;8.40;98.60;;;;;;5018700;28;20174;-94
2023/04/18 04:04:39;;;;;;;29.03;22.07;;;8.40;99.50;;;;;;5018103;28;20193;-94
2023/04/18 04:07:04;;;;;;;26.63;22.00;;;8.40;99.80;;;;;;5018159;28;20200;-94
2023/04/18 04:09:31;;;;;;;28.10;22.47;;;8.30;99.50;;;;;;5019322;28;20298;-90
2023/04/18 04:11:59;;;;;;;25.90;19.93;;;8.30;99.50;;;;;;5017806;28;20182;-90
2023/04/18 04:14:25;;;;;;;28.43;22.73;;;8.30;99.70;;;;;;5019098;28;20181;-91
2023/04/18 04:16:51;;;;;;;26.20;21.63;;;8.20;99.50;;;;;;5020110;28;20207;-92
2023/04/18 04:19:16;;;;;;;27.13;20.83;;;8.40;99.10;;;;;;5036204;28;20165;-95
2023/04/18 04:21:42;;;;;;;27.33;20.07;;;8.20;98.40;;;;;;5040014;28;20182;-89
2023/04/18 04:24:08;;;;;;;30.57;20.47;;;8.20;97.80;;;;;;5033533;28;20193;-90
2023/04/18 04:26:34;;;;;;;24.63;20.07;;;8.10;97.30;;;;;;5035232;28;20201;-92
2023/04/18 04:29:02;;;;;;;27.53;19.50;;;8.00;97.10;;;;;;5039447;28;20162;-90
2023/04/18 04:31:27;;;;;;;22.93;18.77;;;8.10;95.60;;;;;;5034470;28;20723;-95
2023/04/18 04:34:00;;;;;;;26.47;20.43;;;8.30;95.60;;;;;;5025950;28;20288;-95
2023/04/18 04:36:32;;;;;;;23.73;18.20;;;8.10;94.90;;;;;;5024668;28;20182;-95
2023/04/18 04:39:11;;;;;;;26.17;19.07;;;8.10;94.10;;;;;;5019733;28;20257;-90
2023/04/18 04:41:39;;;;;;;20.97;18.40;;;8.10;94.10;;;;;;5024309;28;20212;-93
2023/04/18 04:44:09;;;;;;;25.43;18.20;;;8.00;92.80;;;;;;5020673;28;20291;-92
2023/04/18 04:46:39;;;;;;;21.43;17.60;;;8.00;91.90;;;;;;5019733;28;20581;-92
2023/04/18 04:49:07;;;;;;;23.77;18.20;;;8.00;91.60;;;;;;5019309;28;20225;-92
2023/04/18 04:51:33;;;;;;;21.67;15.20;;;8.00;90.60;;;;;;5019131;28;20192;-94
2023/04/18 04:54:00;;;;;;;21.53;17.40;;;8.10;88.90;;;;;;5027764;28;20557;-90
2023/04/18 04:56:26;;;;;;;20.47;17.17;;;8.00;84.80;;;;;;5032368;28;20182;-94
2023/04/18 04:58:55;;;;;;;23.27;17.53;;;8.00;84.70;;;;;;5033511;28;20221;-89
2023/04/18 05:01:22;;;;;;;22.90;17.07;;;8.10;85.20;;;;;;5036913;28;20178;-91
2023/04/18 05:03:55;;;;;;;23.17;15.83;;;8.00;85.00;;;;;;5026653;28;20181;-90
2023/04/18 05:06:26;;;;;;;23.27;15.90;;;8.10;84.70;;;;;;5029580;28;20173;-96
2023/04/18 05:08:56;;;;;;;24.57;16.23;;;8.00;82.90;;;;;;5025201;28;20205;-91
2023/04/18 05:11:26;;;;;;;22.87;14.90;;;8.00;83.30;;;;;;5005229;28;20428;-90
2023/04/18 05:13:53;;;;;;;21.37;16.67;;;7.90;79.90;;;;;;5020295;28;20182;-90
2023/04/18 05:16:18;;;;;;;22.47;16.10;;;7.90;82.50;;;;;;5021100;28;20186;-89
2023/04/18 05:18:44;;;;;;;22.37;15.70;;;8.20;78.40;;;;;;5030147;28;20154;-91
2023/04/18 05:21:14;;;;;;;20.27;16.27;;;8.00;74.70;;;;;;5037846;28;20213;-91
2023/04/18 05:23:45;;;;;;;20.53;15.47;;;8.10;73.90;;;;;;5033987;28;20178;-89
2023/04/18 05:26:20;;;;;;;20.03;14.13;;;8.10;70.80;;;;;;5028700;28;20190;-94
2023/04/18 05:28:52;;;;;;;16.83;13.57;;;8.00;68.10;;;;;;5026529;28;20178;-93
2023/04/18 05:31:18;;;;;;;21.10;15.20;;;8.00;64.20;;;;;;5024978;28;20157;-89
2023/04/18 05:33:43;;;;;;;16.83;12.93;;;8.00;65.00;;;;;;5035004;28;20228;-89
2023/04/18 05:36:10;;;;;;;16.33;13.03;;;8.10;64.10;;;;;;5044351;28;20580;-94
2023/04/18 05:38:48;;;;;;;21.57;14.07;;;7.90;63.10;;;;;;5038663;28;20182;-89
2023/04/18 05:41:19;;;;;;;18.93;13.20;;;7.90;61.20;;;;;;5038911;28;20205;-90
2023/04/18 05:43:48;;;;;;;18.90;13.30;;;7.90;60.00;;;;;;5035932;28;20594;-89
2023/04/18 05:46:15;;;;;;;19.87;13.77;;;7.90;58.80;;;;;;5023428;28;20247;-91
2023/04/18 05:48:41;;;;;;;18.07;13.63;;;7.90;58.30;;;;;;5022692;28;20166;-91
2023/04/18 05:51:07;;;;;;;17.37;13.87;;;8.00;57.10;;;;;;5021111;28;20213;-92
2023/04/18 05:53:33;;;;;;;19.57;12.57;;;7.90;55.50;;;;;;5021351;28;20196;-89
2023/04/18 05:56:00;;;;;;;16.83;12.50;;;7.90;55.10;;;;;;5022254;28;20587;-93
2023/04/18 05:58:29;;;;;;;23.40;15.20;;;7.90;53.40;;;;;;5022506;28;20208;-91
2023/04/18 06:00:58;;;;;;;19.67;12.60;;;7.80;53.40;;;;;;5019193;28;20186;-91
2023/04/18 06:03:24;;;;;;;22.50;13.30;;;7.80;51.90;;;;;;5018334;28;20211;-92
2023/04/18 06:05:50;;;;;;;20.53;11.70;;;7.80;52.00;;;;;;5003270;28;20255;-93
2023/04/18 06:11:20;;;;;;;15.87;11.97;;;7.70;48.90;;;;;;5021222;28;20188;-91
2023/04/18 06:13:46;;;;;;;16.60;12.10;;;7.80;49.40;;;;;;5026037;28;20182;-93
2023/04/18 06:16:13;;;;;;;16.30;11.50;;;7.70;48.00;;;;;;5038809;28;20184;-90
2023/04/18 06:18:39;;;;;;;14.53;12.23;;;7.70;49.60;;;;;;5033646;28;20205;-89
2023/04/18 06:21:12;;;;;;;17.77;12.30;;;7.70;48.80;;;;;;5033550;28;20186;-90
2023/04/18 06:23:38;;;;;;;16.37;11.70;;;7.80;48.40;;;;;;5007601;28;20639;-90
2023/04/18 06:26:03;;;;;;;19.80;10.50;;;7.70;47.30;;;;;;5015189;28;20194;-92
2023/04/18 06:28:30;;;;;;;17.83;11.30;;;7.70;42.50;;;;;;5011494;28;20254;-92
2023/04/18 06:30:56;;;;;;;14.43;11.60;;;7.90;45.50;;;;;;5005991;28;20229;-94
2023/04/18 06:33:23;;;;;;;14.63;11.87;;;7.80;45.60;;;;;;5004019;28;20584;-93
2023/04/18 06:35:49;;;;;;;11.37;8.57;;;7.90;43.00;;;;;;5004306;28;20189;-96
2023/04/18 06:38:17;;;;;;;13.73;11.43;;;8.00;39.40;;;;;;5003979;28;20193;-93
2023/04/18 06:40:43;;;;;;;14.53;10.73;;;7.90;41.80;;;;;;4988287;28;20201;-95
2023/04/18 06:43:08;;;;;;;13.83;10.60;;;7.90;38.10;;;;;;5003158;28;20183;-93
2023/04/18 06:45:34;;;;;;;13.67;9.97;;;7.90;37.60;;;;;;5002213;28;20186;-95
2023/04/18 06:48:02;;;;;;;14.43;12.10;;;7.70;36.60;;;;;;5015971;28;20197;-93
2023/04/18 06:50:31;;;;;;;14.27;11.30;;;8.10;35.00;;;;;;5002521;28;20325;-95
2023/04/18 06:52:56;;;;;;;18.47;11.77;;;8.20;30.70;;;;;;5019741;28;20178;-95
2023/04/18 06:55:22;;;;;;;13.60;10.10;;;8.20;30.30;;;;;;5022922;28;20642;-93
2023/04/18 06:57:48;;;;;;;16.37;11.53;;;8.20;28.10;;;;;;5020096;28;20174;-91
2023/04/18 07:00:14;;;;;;;13.13;11.20;;;8.30;29.50;;;;;;5002740;28;20254;-94
2023/04/18 07:02:40;;;;;;;14.87;10.30;;;8.40;26.70;;;;;;5021656;28;20199;-93
2023/04/18 07:05:06;;;;;;;15.03;11.63;;;8.50;24.30;;;;;;5020317;28;20190;-95
2023/04/18 07:07:34;;;;;;;13.50;10.10;;;8.40;24.20;;;;;;5019515;28;20222;-93
2023/04/18 07:10:04;;;;;;;12.53;9.77;;;8.50;21.90;;;;;;5019239;28;20368;-92
2023/04/18 07:12:32;;;;;;;12.47;10.00;;;8.40;20.80;;;;;;5004205;28;20198;-93
2023/04/18 07:14:59;;;;;;;13.67;10.57;;;8.40;22.00;;;;;;5022054;28;20177;-94
2023/04/18 07:17:32;;;;;;;13.60;10.07;;;8.70;21.80;;;;;;5020326;28;20210;-93
2023/04/18 07:19:59;;;;;;;14.50;11.50;;;8.60;21.00;;;;;;5026894;28;20166;-93
2023/04/18 07:22:25;;;;;;;12.73;10.37;;;8.70;21.30;;;;;;5017231;28;20178;-93
2023/04/18 07:24:52;;;;;;;12.67;10.23;;;8.70;15.80;;;;;;5018347;28;20197;-92
2023/04/18 07:27:19;;;;;;;11.17;9.83;;;8.60;13.80;;;;;;5032369;28;20200;-90
2023/04/18 07:29:44;;;;;;;14.40;10.80;;;8.60;18.20;;;;;;5024367;28;20264;-94
2023/04/18 07:32:11;;;;;;;15.30;10.47;;;8.60;20.40;;;;;;5023544;28;20612;-91
2023/04/18 07:34:39;;;;;;;11.47;9.67;;;8.70;19.00;;;;;;5021911;28;20240;-94
2023/04/18 07:37:07;;;;;;;11.23;10.13;;;8.60;15.10;;;;;;5020596;28;20194;-93
2023/04/18 07:39:34;;;;;;;14.50;9.30;;;8.50;18.90;;;;;;5020174;28;20202;-95
2023/04/18 07:42:01;;;;;;;12.57;10.13;;;8.50;18.60;;;;;;5020393;28;20198;-95
2023/04/18 07:44:27;;;;;;;12.23;10.60;;;8.60;18.20;;;;;;5024885;28;20258;-94
2023/04/18 07:46:54;;;;;;;13.63;10.73;;;8.80;17.90;;;;;;5027025;28;20214;-91
2023/04/18 07:49:20;;;;;;;13.53;10.10;;;8.90;14.80;;;;;;5029988;28;20289;-93
2023/04/18 07:51:49;;;;;;;11.33;10.13;;;9.10;11.10;;;;;;5023379;28;20258;-94
2023/04/18 07:54:16;;;;;;;13.20;10.40;;;8.90;10.30;;;;;;5027380;28;20182;-93
2023/04/18 07:56:41;;;;;;;12.67;10.83;;;9.00;11.20;;;;;;5037603;28;20166;-91
2023/04/18 07:59:10;;;;;;;12.33;10.73;;;9.10;8.50;;;;;;5036142;28;20188;-93
2023/04/18 08:01:36;;;;;;;11.37;9.97;;;9.20;4.90;;;;;;5028372;28;20174;-94
2023/04/18 08:04:02;;;;;;;11.17;9.93;;;9.30;1.00;;;;;;5021727;28;20202;-95
2023/04/18 08:06:29;;;;;;;15.03;11.13;;;9.20;1.30;;;;;;5022033;28;20178;-94
2023/04/18 08:08:57;;;;;;;14.73;11.77;;;9.20;5.40;;;;;;5023478;28;20194;-94
2023/04/18 08:11:23;;;;;;;14.87;11.40;;;9.20;4.10;;;;;;5037797;28;20265;-93
2023/04/18 08:13:50;;;;;;;14.27;11.27;;;9.20;5.30;;;;;;5038364;28;20147;-94
2023/04/18 08:16:21;;;;;;;18.83;12.73;;;9.30;5.80;;;;;;5029063;28;20194;-94
2023/04/18 08:18:47;;;;;;;15.63;12.27;;;9.40;1.00;;;;;;5031810;28;20163;-94
2023/04/18 08:21:14;;;;;;;14.40;12.90;;;9.30;1.00;;;;;;5036021;28;20175;-95
2023/04/18 08:23:39;;;;;;;20.60;13.60;;;9.50;1.00;;;;;;5031716;28;20230;-95
2023/04/18 08:26:05;;;;;;;18.23;15.57;;;9.50;1.00;;;;;;5023705;28;20190;-95
2023/04/18 08:28:31;;;;;;;17.57;15.27;;;9.50;1.00;;;;;;5029876;28;20163;-96
2023/04/18 08:30:56;;;;;;;17.60;15.80;;;9.70;1.00;;;;;;5037405;28;20229;-90
2023/04/18 08:33:28;;;;;;;17.17;15.37;;;9.80;1.00;;;;;;5036884;28;20194;-93
2023/04/18 08:35:56;;;;;;;16.87;15.17;;;9.90;1.00;;;;;;5039408;28;20198;-93
2023/04/18 08:38:23;;;;;;;16.23;14.53;;;10.00;1.00;;;;;;5039230;28;20184;-91
2023/04/18 08:40:53;;;;;;;15.90;14.30;;;10.10;1.00;;;;;;5030725;28;20181;-93
2023/04/18 08:43:21;;;;;;;17.00;14.53;;;10.30;1.00;;;;;;5026159;28;20181;-93
2023/04/18 08:45:50;;;;;;;15.47;13.80;;;10.20;1.00;;;;;;5023227;28;20232;-93
2023/04/18 08:48:16;;;;;;;14.53;13.00;;;10.30;1.00;;;;;;5017423;28;20198;-95
2023/04/18 08:50:43;;;;;;;14.90;12.80;;;10.20;1.00;;;;;;5001726;28;20360;-93
2023/04/18 08:53:10;;;;;;;14.60;13.10;;;10.20;1.00;;;;;;5002577;28;20192;-93
2023/04/18 08:55:36;;;;;;;16.10;14.40;;;10.10;1.00;;;;;;5005557;28;20639;-91
2023/04/18 08:58:05;;;;;;;17.13;13.73;;;10.20;1.00;;;;;;5004457;28;20189;-91
2023/04/18 09:00:31;;;;;;;15.00;13.40;;;10.40;1.00;;;;;;5006087;28;20266;-95
2023/04/18 09:02:57;;;;;;;16.50;14.90;;;10.40;1.00;;;;;;5012561;28;20179;-91
2023/04/18 09:05:26;;;;;;;16.40;14.67;;;10.60;1.00;;;;;;5017006;28;20178;-91
2023/04/18 09:07:53;;;;;;;17.23;14.33;;;10.60;1.00;;;;;;4999823;28;20178;-90
2023/04/18 09:10:35;;;;;;;15.07;13.43;;;10.70;1.00;;;;;;4997342;28;20221;-94
2023/04/18 09:13:08;;;;;;;14.00;12.63;;;10.90;1.00;;;;;;5009476;28;20573;-92
2023/04/18 09:15:37;;;;;;;15.00;12.43;;;11.00;1.00;;;;;;5004481;28;20189;-94
2023/04/18 09:18:11;;;;;;;15.80;14.10;;;10.90;1.00;;;;;;5002997;28;20182;-92
2023/04/18 09:20:40;;;;;;;14.07;12.37;;;10.80;1.00;;;;;;5002744;28;20285;-93
2023/04/18 09:23:15;;;;;;;16.03;13.13;;;10.90;1.00;;;;;;4987424;28;20183;-91
2023/04/18 09:25:41;;;;;;;14.80;12.93;;;11.00;1.00;;;;;;5000411;28;20242;-93
2023/04/18 09:28:30;;;;;;;15.13;13.03;;;11.00;1.00;;;;;;5005200;28;20174;-94
2023/04/18 09:31:08;;;;;;;14.73;12.50;;;11.00;1.00;;;;;;5006264;28;20221;-93
2023/04/18 09:33:38;;;;;;;13.80;11.53;;;11.20;1.00;;;;;;5009615;28;20258;-92
2023/04/18 09:36:19;;;;;;;12.80;11.37;;;11.30;1.00;;;;;;5007962;28;20197;-90
2023/04/18 09:38:46;;;;;;;13.57;11.77;;;11.40;1.00;;;;;;5019850;28;20213;-93
2023/04/18 09:41:15;;;;;;;13.97;11.70;;;11.50;1.00;;;;;;5020432;28;20167;-91
2023/04/18 09:43:50;;;;;;;13.57;11.80;;;11.70;1.00;;;;;;5017856;28;20255;-93
2023/04/18 09:46:38;;;;;;;13.27;11.27;;;11.50;1.00;;;;;;5011156;28;20182;-91
2023/04/18 09:49:05;;;;;;;16.07;12.37;;;11.60;1.00;;;;;;5019082;28;20599;-91
2023/04/18 09:51:32;;;;;;;14.60;12.80;;;11.60;1.00;;;;;;5030416;28;20189;-92
2023/04/18 09:53:59;;;;;;;14.97;12.30;;;11.60;1.00;;;;;;5029128;28;20240;-91
2023/04/18 09:56:31;;;;;;;13.77;12.13;;;11.60;1.00;;;;;;5012328;28;20186;-90
2023/04/18 09:59:08;;;;;;;12.67;10.90;;;11.70;1.00;;;;;;5046023;28;20185;-92
2023/04/18 10:01:35;;;;;;;15.03;13.53;;;11.80;1.00;;;;;;5028074;28;20765;-93
2023/04/18 10:04:03;;;;;;;14.30;12.80;;;11.80;1.00;;;;;;5009669;28;20178;-91
2023/04/18 10:06:32;;;;;;;15.53;11.77;;;12.00;1.00;;;;;;5008517;28;20285;-91
2023/04/18 10:08:59;;;;;;;16.00;13.05;;;12.20;1.00;;;;;;5008141;28;20213;-91
2023/04/18 10:11:25;;;;;;;16.37;13.43;;;12.20;1.00;;;;;;5009461;28;20194;-93
2023/04/18 10:13:57;;;;;;;14.43;12.93;;;12.20;1.00;;;;;;5021977;28;20170;-92
2023/04/18 10:16:24;;;;;;;15.53;12.67;;;12.30;1.00;;;;;;5023621;28;20240;-91
2023/04/18 10:18:50;;;;;;;17.13;14.30;;;12.20;1.00;;;;;;5023908;28;20179;-90
2023/04/18 10:21:17;;;;;;;16.80;13.60;;;12.10;1.00;;;;;;5022505;28;20248;-88
2023/04/18 10:23:51;;;;;;;17.07;14.60;;;12.00;1.00;;;;;;5022070;28;20191;-92
2023/04/18 10:26:45;;;;;;;18.53;13.83;;;12.20;1.00;;;;;;5006559;28;20194;-90
2023/04/18 10:29:14;;;;;;;15.60;12.50;;;12.40;1.00;;;;;;5007252;28;20194;-90
2023/04/18 10:31:46;;;;;;;18.10;13.80;;;12.30;1.00;;;;;;5008600;28;20183;-92
2023/04/18 10:34:16;;;;;;;14.80;13.20;;;12.40;1.00;;;;;;5011588;28;20182;-90
2023/04/18 10:37:03;;;;;;;14.60;12.67;;;12.60;1.00;;;;;;5009573;28;20191;-90
2023/04/18 10:39:30;;;;;;;17.73;12.60;;;12.70;1.00;;;;;;5011853;28;20280;-90
2023/04/18 10:41:57;;;;;;;17.50;13.37;;;12.70;1.00;;;;;;5026254;28;20233;-91
2023/04/18 10:44:23;;;;;;;15.40;12.27;;;12.90;1.00;;;;;;5007170;28;20254;-91
2023/04/18 10:46:51;;;;;;;18.20;13.40;;;12.80;1.00;;;;;;5006228;28;20190;-90
2023/04/18 10:49:24;;;;;;;14.33;11.97;;;13.00;1.00;;;;;;5017835;28;20215;-91
2023/04/18 10:51:53;;;;;;;14.77;12.20;;;13.10;1.00;;;;;;5023189;28;20238;-90
2023/04/18 10:54:34;;;;;;;14.13;11.13;;;13.00;1.00;;;;;;5021783;28;20181;-89
2023/04/18 10:57:04;;;;;;;15.10;10.53;;;12.90;1.00;;;;;;5012538;28;20182;-90
2023/04/18 10:59:33;;;;;;;12.80;10.37;;;12.90;1.00;;;;;;5010270;28;20179;-90
2023/04/18 11:02:25;;;;;;;13.57;11.47;;;13.20;1.00;;;;;;5010226;28;20183;-91
2023/04/18 11:04:57;;;;;;;12.30;9.97;;;13.40;1.00;;;;;;5007708;28;20195;-91
2023/04/18 11:07:33;;;;;;;11.87;10.17;;;13.50;1.00;;;;;;5016178;28;20241;-90
2023/04/18 11:09:59;;;;;;;13.37;9.60;;;13.40;1.00;;;;;;5022266;28;20227;-93
2023/04/18 11:12:29;;;;;;;15.27;10.50;;;13.40;1.00;;;;;;5006595;28;20230;-90
2023/04/18 11:15:00;;;;;;;11.20;9.57;;;13.20;1.00;;;;;;5013343;28;20182;-90
2023/04/18 11:17:31;;;;;;;19.53;11.03;;;13.10;1.00;;;;;;5006315;28;20219;-89
2023/04/18 11:20:09;;;;;;;14.83;10.33;;;13.00;1.00;;;;;;5005144;28;20184;-91
2023/04/18 11:22:54;;;;;;;11.80;10.60;;;12.90;1.00;;;;;;5018222;28;20183;-91
2023/04/18 11:25:24;;;;;;;14.43;10.57;;;12.80;1.00;;;;;;5025331;28;20544;-92
2023/04/18 11:27:50;;;;;;;12.13;10.87;;;13.00;1.00;;;;;;5026180;28;20187;-91
2023/04/18 11:30:17;;;;;;;14.10;11.83;;;13.00;1.00;;;;;;5021256;28;20848;-90
2023/04/18 11:32:46;;;;;;;13.73;12.00;;;13.20;1.00;;;;;;5022451;28;20208;-89
2023/04/18 11:35:18;;;;;;;12.73;11.43;;;13.10;1.00;;;;;;5022063;28;20201;-89
2023/04/18 11:37:44;;;;;;;14.43;11.07;;;12.90;1.00;;;;;;5015834;28;20226;-90
2023/04/18 11:40:14;;;;;;;13.33;10.97;;;12.80;1.00;;;;;;5016380;28;20174;-91
2023/04/18 11:42:44;;;;;;;14.30;10.30;;;13.00;1.00;;;;;;5008381;28;20192;-90
2023/04/18 11:45:14;;;;;;;13.03;10.30;;;12.90;1.00;;;;;;4989334;28;20535;-92
2023/04/18 11:47:48;;;;;;;10.97;9.67;;;13.20;1.00;;;;;;5006695;28;20189;-91
2023/04/18 11:50:13;;;;;;;9.80;7.97;;;13.50;1.00;;;;;;5005033;28;20271;-90
2023/04/18 11:52:41;;;;;;;10.80;9.70;;;13.80;1.00;;;;;;5007353;28;20198;-89
2023/04/18 11:55:23;;;;;;;21.00;10.43;;;13.70;1.00;;;;;;5006362;28;20579;-90
2023/04/18 11:57:53;;;;;;;12.27;9.40;;;13.30;1.00;;;;;;5003170;28;20189;-88
2023/04/18 12:00:29;;;;;;;13.23;9.77;;;13.00;1.00;;;;;;5003860;28;20188;-89
2023/04/18 12:02:55;;;;;;;10.00;8.77;;;13.00;1.00;;;;;;5003362;28;20175;-90
2023/04/18 12:05:27;;;;;;;12.63;9.20;;;13.20;1.00;;;;;;5007811;28;20202;-89
2023/04/18 12:08:03;;;;;;;11.50;9.20;;;13.20;1.00;;;;;;5016594;28;20223;-91
2023/04/18 12:10:31;;;;;;;10.73;8.73;;;13.40;1.00;;;;;;5018116;28;20328;-91
2023/04/18 12:12:58;;;;;;;10.20;9.10;;;13.20;1.00;;;;;;5010567;28;20177;-91
2023/04/18 12:15:28;;;;;;;11.67;9.20;;;13.30;1.00;;;;;;5004242;28;20610;-92
2023/04/18 12:18:00;;;;;;;12.67;9.97;;;13.30;1.00;;;;;;5008202;28;20650;-89
2023/04/18 12:20:38;;;;;;;9.90;8.47;;;13.50;1.00;;;;;;5010511;28;20190;-87
2023/04/18 12:23:04;;;;;;;11.67;8.97;;;13.50;1.00;;;;;;5009491;28;20176;-87
2023/04/18 12:25:30;;;;;;;8.50;7.57;;;13.40;1.00;;;;;;5014569;28;20191;-88
2023/04/18 12:28:05;;;;;;;10.20;9.07;;;13.40;1.00;;;;;;5014587;28;20192;-89
2023/04/18 12:30:33;;;;;;;10.20;8.90;;;13.40;1.00;;;;;;5013703;28;20211;-90
2023/04/18 12:33:01;;;;;;;11.10;9.43;;;13.50;1.00;;;;;;5011117;28;20193;-89
2023/04/18 12:35:28;;;;;;;9.57;7.90;;;13.70;1.00;;;;;;5008990;28;20212;-90
2023/04/18 12:37:55;;;;;;;10.30;9.27;;;13.80;1.00;;;;;;5009636;28;20190;-90
2023/04/18 12:40:26;;;;;;;11.27;10.10;;;13.90;1.00;;;;;;5005317;28;20269;-91
2023/04/18 12:42:54;;;;;;;11.17;10.03;;;13.80;1.00;;;;;;5003625;28;20173;-89
2023/04/18 12:45:21;;;;;;;13.40;10.77;;;13.80;1.00;;;;;;5005147;28;20211;-91
2023/04/18 12:47:49;;;;;;;11.93;9.97;;;13.70;1.00;;;;;;4995408;28;20197;-91